createdAt,value
2022-10-08T00:04:44.014Z,4.05
2022-10-08T00:09:48.021Z,4.20
2022-10-08T00:14:52.712Z,3.93
2022-10-08T00:19:58.350Z,4.40
2022-10-08T00:25:01.717Z,4.68
2022-10-08T00:30:09.826Z,4.03
2022-10-08T00:35:13.894Z,5.03
2022-10-08T00:40:18.112Z,4.20
2022-10-08T00:45:23.789Z,3.55
2022-10-08T00:50:34.534Z,4.45
2022-10-08T00:55:43.652Z,4.22
2022-10-08T01:00:50.917Z,4.20
2022-10-08T01:06:04.875Z,3.90
2022-10-08T01:11:21.458Z,3.78
2022-10-08T01:16:33.125Z,3.55
2022-10-08T01:21:44.201Z,3.40
2022-10-08T01:26:57.759Z,4.05
2022-10-08T01:32:09.741Z,3.90
2022-10-08T01:37:18.990Z,3.83
2022-10-08T01:42:24.289Z,4.28
2022-10-08T01:47:32.507Z,4.05
2022-10-08T01:52:41.865Z,4.05
2022-10-08T01:57:47.559Z,4.28
2022-10-08T02:02:55.241Z,4.47
2022-10-08T02:07:59.322Z,5.10
2022-10-08T02:13:02.994Z,6.00
2022-10-08T02:18:15.401Z,5.85
2022-10-08T02:23:25.433Z,6.30
2022-10-08T02:28:36.641Z,5.82
2022-10-08T02:33:45.628Z,5.47
2022-10-08T02:38:54.772Z,5.25
2022-10-08T02:44:01.332Z,5.30
2022-10-08T02:49:11.141Z,4.25
2022-10-08T02:54:14.750Z,4.22
2022-10-08T02:59:21.490Z,4.32
2022-10-08T03:04:31.452Z,3.65
2022-10-08T03:09:41.548Z,4.03
2022-10-08T03:14:49.111Z,3.65
2022-10-08T03:19:54.652Z,3.17
2022-10-08T03:24:58.016Z,3.63
2022-10-08T03:30:02.003Z,3.00
2022-10-08T03:35:09.161Z,3.30
2022-10-08T03:40:13.440Z,3.17
2022-10-08T03:45:17.590Z,3.30
2022-10-08T03:50:23.653Z,3.67
2022-10-08T03:55:27.805Z,2.85
2022-10-08T04:00:31.883Z,4.20
2022-10-08T04:05:37.396Z,3.27
2022-10-08T04:10:41.453Z,3.38
2022-10-08T04:15:45.048Z,3.03
2022-10-08T04:20:50.532Z,3.00
2022-10-08T04:25:55.929Z,3.00
2022-10-08T04:31:01.782Z,3.72
2022-10-08T04:36:12.017Z,2.85
2022-10-08T04:41:18.135Z,3.00
2022-10-08T04:46:23.718Z,3.08
2022-10-08T04:51:30.016Z,3.17
2022-10-08T04:56:35.634Z,3.70
2022-10-08T05:01:39.853Z,3.40
2022-10-08T05:06:45.455Z,3.53
2022-10-08T05:11:49.519Z,3.55
2022-10-08T05:16:53.553Z,3.07
2022-10-08T05:21:58.947Z,3.03
2022-10-08T05:27:03.140Z,3.42
2022-10-08T05:32:07.166Z,3.28
2022-10-08T05:37:12.619Z,3.00
2022-10-08T05:42:15.928Z,3.40
2022-10-08T05:47:20.002Z,3.30
2022-10-08T05:52:24.711Z,2.90
2022-10-08T05:57:29.431Z,3.13
2022-10-08T06:07:38.015Z,3.22
2022-10-08T06:12:41.365Z,3.13
2022-10-08T06:17:45.402Z,2.72
2022-10-08T06:22:50.330Z,2.78
2022-10-08T06:27:54.526Z,2.92
2022-10-08T06:32:57.786Z,3.25
2022-10-08T06:38:03.609Z,3.40
2022-10-08T06:43:08.272Z,2.50
2022-10-08T06:48:12.538Z,2.00
2022-10-08T06:58:21.269Z,2.50
2022-10-08T07:03:24.637Z,2.53
2022-10-08T07:08:30.464Z,2.95
2022-10-08T07:13:34.039Z,2.40
2022-10-08T07:18:39.324Z,2.30
2022-10-08T07:23:44.179Z,2.20
2022-10-08T07:28:52.764Z,2.47
2022-10-08T07:33:56.208Z,2.40
2022-10-08T07:39:03.308Z,2.65
2022-10-08T07:44:07.038Z,2.35
2022-10-08T07:49:11.090Z,2.65
2022-10-08T07:54:19.177Z,2.72
2022-10-08T07:59:23.232Z,2.42
2022-10-08T08:04:27.178Z,2.47
2022-10-08T08:09:32.763Z,2.70
2022-10-08T08:14:37.402Z,2.85
2022-10-08T08:19:41.502Z,2.22
2022-10-08T08:24:46.234Z,3.55
2022-10-08T08:29:50.312Z,2.85
2022-10-08T08:34:53.650Z,1.98
2022-10-08T08:39:59.028Z,2.67
2022-10-08T08:45:04.841Z,2.47
2022-10-08T08:50:21.416Z,2.60
2022-10-08T08:55:37.354Z,2.33
2022-10-08T09:00:45.433Z,2.22
2022-10-08T09:05:54.367Z,2.15
2022-10-08T09:11:02.293Z,2.13
2022-10-08T09:16:05.816Z,1.80
2022-10-08T09:21:09.845Z,1.83
2022-10-08T09:26:19.704Z,2.08
2022-10-08T09:31:28.258Z,2.05
2022-10-08T09:36:35.904Z,2.08
2022-10-08T09:41:41.417Z,2.58
2022-10-08T09:46:46.217Z,2.53
2022-10-08T09:51:52.258Z,2.13
2022-10-08T09:57:00.744Z,2.20
2022-10-08T10:02:10.324Z,2.80
2022-10-08T10:07:14.507Z,2.45
2022-10-08T10:12:28.105Z,2.35
2022-10-08T10:17:38.385Z,2.13
2022-10-08T10:22:47.877Z,2.22
2022-10-08T10:27:56.937Z,2.03
2022-10-08T10:33:05.859Z,2.22
2022-10-08T10:38:15.390Z,2.47
2022-10-08T10:43:39.236Z,2.10
2022-10-08T10:48:43.336Z,2.13
2022-10-08T10:54:00.249Z,2.33
2022-10-08T10:59:45.696Z,2.00
2022-10-08T11:05:01.910Z,2.00
2022-10-08T11:10:17.623Z,2.53
2022-10-08T11:15:30.543Z,2.30
2022-10-08T11:20:44.977Z,2.58
2022-10-08T11:26:20.512Z,2.67
2022-10-08T11:31:33.358Z,2.55
2022-10-08T11:36:43.052Z,1.75
2022-10-08T11:41:55.049Z,2.53
2022-10-08T11:47:32.483Z,2.70
2022-10-08T11:52:37.374Z,2.65
2022-10-08T11:58:06.538Z,2.88
2022-10-08T12:03:08.301Z,2.50
2022-10-08T12:08:49.690Z,2.65
2022-10-08T12:14:27.802Z,2.42
2022-10-08T12:20:07.914Z,3.88
2022-10-08T12:25:44.400Z,2.63
2022-10-08T12:30:50.637Z,6.10
2022-10-08T12:36:02.706Z,2.50
2022-10-08T12:41:18.242Z,2.90
2022-10-08T12:46:36.750Z,3.10
2022-10-08T12:51:47.836Z,2.55
2022-10-08T12:56:53.328Z,2.63
2022-10-08T13:01:59.046Z,2.50
2022-10-08T13:07:21.003Z,2.70
2022-10-08T13:12:24.899Z,2.45
2022-10-08T13:17:31.215Z,2.40
2022-10-08T13:22:34.709Z,2.40
2022-10-08T13:27:38.026Z,2.60
2022-10-08T13:32:42.863Z,3.03
2022-10-08T13:37:52.291Z,3.17
2022-10-08T13:42:58.529Z,3.20
2022-10-08T13:48:03.554Z,2.85
2022-10-08T13:53:06.922Z,3.30
2022-10-08T13:58:13.107Z,3.30
2022-10-08T14:03:17.973Z,4.10
2022-10-08T14:08:26.383Z,3.95
2022-10-08T14:13:29.923Z,3.60
2022-10-08T14:18:34.726Z,3.47
2022-10-08T14:23:38.119Z,3.25
2022-10-08T14:28:41.559Z,3.47
2022-10-08T14:33:46.960Z,3.75
2022-10-08T14:38:50.325Z,3.60
2022-10-08T14:43:53.715Z,3.95
2022-10-08T14:48:58.668Z,4.57
2022-10-08T14:54:02.018Z,5.68
2022-10-08T14:59:05.866Z,6.05
2022-10-08T15:04:14.977Z,5.23
2022-10-08T15:09:18.448Z,5.75
2022-10-08T15:14:21.973Z,6.88
2022-10-08T15:19:26.753Z,6.57
2022-10-08T15:29:33.275Z,9.15
2022-10-08T15:34:38.009Z,12.00
2022-10-08T15:44:46.686Z,13.80
2022-10-08T15:49:51.467Z,11.35
2022-10-08T15:54:54.863Z,10.80
2022-10-08T15:59:58.936Z,9.88
2022-10-08T16:05:03.681Z,9.60
2022-10-08T16:15:11.407Z,9.18
2022-10-08T16:20:16.352Z,9.30
2022-10-08T16:25:19.726Z,9.55
2022-10-08T16:30:23.144Z,9.57
2022-10-08T16:35:28.089Z,9.57
2022-10-08T16:45:37.480Z,11.02
2022-10-08T16:50:43.097Z,11.32
2022-10-08T16:55:46.429Z,11.15
2022-10-08T17:00:49.762Z,9.77
2022-10-08T17:05:54.628Z,10.13
2022-10-08T17:16:02.441Z,9.15
2022-10-08T17:21:08.250Z,8.45
2022-10-08T17:26:13.682Z,9.18
2022-10-08T17:31:19.353Z,10.00
2022-10-08T17:36:26.631Z,10.30
2022-10-08T17:41:32.426Z,9.63
2022-10-08T17:46:37.572Z,9.55
2022-10-08T17:51:42.546Z,10.55
2022-10-08T17:56:45.866Z,10.38
2022-10-08T18:01:49.410Z,8.80
2022-10-08T18:06:58.670Z,8.45
2022-10-08T18:12:06.367Z,8.35
2022-10-08T18:17:09.823Z,8.83
2022-10-08T18:22:14.581Z,9.05
2022-10-08T18:27:17.954Z,7.90
2022-10-08T18:32:21.286Z,8.95
2022-10-08T18:37:26.441Z,8.93
2022-10-08T18:42:29.760Z,8.38
2022-10-08T18:47:33.114Z,8.75
2022-10-08T18:52:37.834Z,8.35
2022-10-08T18:57:41.154Z,8.45
2022-10-08T19:02:44.581Z,8.15
2022-10-08T19:07:49.515Z,7.97
2022-10-08T19:17:56.068Z,7.82
2022-10-08T19:23:01.137Z,7.70
2022-10-08T19:28:04.521Z,7.55
2022-10-08T19:33:08.234Z,7.38
2022-10-08T19:38:13.019Z,7.20
2022-10-08T19:48:19.643Z,8.02
2022-10-08T19:53:24.555Z,7.57
2022-10-08T19:58:27.920Z,7.30
2022-10-08T20:03:31.228Z,7.35
2022-10-08T20:08:36.599Z,7.55
2022-10-08T20:13:41.120Z,6.88
2022-10-08T20:18:49.990Z,7.15
2022-10-08T20:23:55.202Z,7.25
2022-10-08T20:29:02.218Z,7.38
2022-10-08T20:34:08.230Z,7.85
2022-10-08T20:39:14.097Z,6.72
2022-10-08T20:44:17.965Z,6.95
2022-10-08T20:49:21.352Z,7.17
2022-10-08T20:54:26.296Z,7.28
2022-10-08T20:59:29.655Z,7.38
2022-10-08T21:04:33.273Z,7.05
2022-10-08T21:09:37.979Z,6.80
2022-10-08T21:14:41.362Z,7.47
2022-10-08T21:19:44.732Z,7.97
2022-10-08T21:24:49.545Z,6.97
2022-10-08T21:29:52.979Z,7.50
2022-10-08T21:34:56.307Z,6.95
2022-10-08T21:40:01.248Z,6.63
2022-10-08T21:45:07.552Z,6.75
2022-10-08T21:50:11.297Z,7.05
2022-10-08T21:55:16.450Z,6.45
2022-10-08T22:00:19.827Z,6.65
2022-10-08T22:05:26.532Z,6.70
2022-10-08T22:10:33.834Z,6.75
2022-10-08T22:15:37.202Z,5.47
2022-10-08T22:20:40.564Z,6.00
2022-10-08T22:25:53.623Z,5.85
2022-10-08T22:30:59.497Z,5.43
2022-10-08T22:36:03.534Z,5.53
2022-10-08T22:41:11.615Z,5.30
2022-10-08T22:46:18.074Z,5.88
2022-10-08T22:51:22.572Z,5.72
2022-10-08T22:56:29.331Z,5.47
2022-10-08T23:01:32.687Z,5.18
2022-10-08T23:06:36.253Z,5.55
2022-10-08T23:11:41.296Z,4.97
2022-10-08T23:16:44.707Z,5.18
2022-10-08T23:21:49.510Z,5.07
2022-10-08T23:26:54.334Z,4.55
2022-10-08T23:31:57.682Z,5.00
2022-10-08T23:37:01.015Z,4.55
2022-10-08T23:42:05.869Z,4.88
2022-10-08T23:52:12.394Z,4.47
2022-10-08T23:57:17.123Z,4.50
